Time;durP1;ratioP1;P1;durP2;ratioP2;P2;SDS_P1;SDS_P2;PMS_P1;PMS_P2;Temp;Humidity;BMP_temperature;BMP_pressure;BME280_temperature;BME280_humidity;BME280_pressure;Samples;Min_cycle;Max_cycle;Signal;HPM_P1;HPM_P2
2021/08/23 00:00:15;;;;;;;9.60;7.28;;;;;;;16.48;82.85;101195.77;1733938;82;21035;-73
2021/08/23 00:02:42;;;;;;;9.60;7.17;;;;;;;16.46;82.91;101193.72;1733725;82;21486;-72
2021/08/23 00:05:10;;;;;;;7.70;6.75;;;;;;;16.44;83.04;101196.47;1733585;82;20913;-72
2021/08/23 00:07:37;;;;;;;10.18;6.85;;;;;;;16.41;82.93;101192.74;1734052;81;20920;-72
2021/08/23 00:10:07;;;;;;;8.68;6.15;;;;;;;16.40;82.99;101194.17;1733657;81;21473;-73
2021/08/23 00:12:36;;;;;;;8.25;6.05;;;;;;;16.39;82.86;101193.82;1733717;81;21429;-72
2021/08/23 00:15:09;;;;;;;6.72;6.10;;;;;;;16.37;82.62;101201.87;1733644;81;21016;-72
2021/08/23 00:17:36;;;;;;;7.72;6.28;;;;;;;16.34;82.20;101198.11;1733674;81;20909;-72
2021/08/23 00:20:06;;;;;;;9.43;6.62;;;;;;;16.30;81.92;101200.16;1733687;81;20991;-72
2021/08/23 00:22:36;;;;;;;7.35;6.30;;;;;;;16.30;81.95;101201.97;1733861;82;21829;-72
2021/08/23 00:25:04;;;;;;;9.48;6.80;;;;;;;16.27;81.91;101198.21;1733498;82;20984;-73
2021/08/23 00:27:32;;;;;;;6.87;6.28;;;;;;;16.25;82.00;101206.74;1733673;81;20905;-73
2021/08/23 00:29:59;;;;;;;14.15;6.12;;;;;;;16.21;82.14;101206.14;1734035;82;21512;-72
2021/08/23 00:32:28;;;;;;;11.73;7.67;;;;;;;16.19;82.12;101201.93;1729706;81;20894;-73
2021/08/23 00:34:57;;;;;;;9.95;6.17;;;;;;;16.16;82.09;101199.00;1728296;83;21549;-72
2021/08/23 00:37:24;;;;;;;7.85;6.35;;;;;;;16.14;82.23;101198.27;1728703;83;20936;-74
2021/08/23 00:39:52;;;;;;;6.30;5.70;;;;;;;16.09;82.61;101193.33;1728329;83;20921;-73
2021/08/23 00:42:19;;;;;;;6.67;5.72;;;;;;;16.09;82.61;101193.33;1728517;83;20913;-72
2021/08/23 00:44:45;;;;;;;9.70;5.55;;;;;;;16.09;82.29;101198.61;1728358;83;20945;-73
2021/08/23 00:47:14;;;;;;;7.78;6.72;;;;;;;16.06;82.51;101198.86;1728310;82;20969;-73
2021/08/23 00:49:41;;;;;;;9.40;6.28;;;;;;;16.02;82.70;101203.16;1728253;83;21462;-74
2021/08/23 00:52:08;;;;;;;10.82;7.40;;;;;;;16.01;82.68;101210.72;1728681;83;20953;-73
2021/08/23 00:54:35;;;;;;;11.33;8.00;;;;;;;15.97;82.59;101211.92;1728221;83;20949;-73
2021/08/23 00:57:03;;;;;;;16.10;7.72;;;;;;;15.93;82.84;101209.48;1728575;83;21015;-73
2021/08/23 00:59:33;;;;;;;20.20;8.03;;;;;;;15.90;82.98;101208.89;1728534;83;21166;-72
2021/08/23 01:02:16;;;;;;;10.93;7.25;;;;;;;15.87;83.05;101214.38;1728170;83;20941;-72
2021/08/23 01:04:52;;;;;;;8.80;6.10;;;;;;;15.82;83.01;101206.78;1728274;83;21051;-72
2021/08/23 01:07:21;;;;;;;7.42;5.85;;;;;;;15.80;83.11;101210.02;1728717;83;20987;-73
2021/08/23 01:09:53;;;;;;;8.08;5.30;;;;;;;15.78;83.25;101202.67;1728377;83;20940;-72
2021/08/23 01:12:20;;;;;;;11.35;6.10;;;;;;;15.78;83.34;101202.67;1728276;82;21128;-71
2021/08/23 01:14:47;;;;;;;9.05;5.15;;;;;;;15.78;83.30;101201.83;1728258;83;20889;-72
2021/08/23 01:17:14;;;;;;;13.15;5.70;;;;;;;15.74;83.24;101199.91;1728281;82;21517;-73
2021/08/23 01:19:41;;;;;;;7.30;6.08;;;;;;;15.72;82.92;101202.65;1728254;83;20941;-73
2021/08/23 01:22:08;;;;;;;11.05;6.85;;;;;;;15.70;82.75;101205.84;1696834;83;20913;-73
2021/08/23 01:24:35;;;;;;;10.38;6.83;;;;;;;15.65;82.60;101204.48;1696631;83;21238;-72
2021/08/23 01:27:04;;;;;;;12.35;6.45;;;;;;;15.61;82.65;101207.00;1728343;83;20989;-73
2021/08/23 01:30:00;;;;;;;16.40;7.22;;;;;;;15.57;82.83;101204.20;1728192;83;21024;-71
2021/08/23 01:32:26;;;;;;;8.40;5.60;;;;;;;15.55;82.96;101205.63;1728275;82;20921;-72
2021/08/23 01:34:54;;;;;;;10.98;6.42;;;;;;;15.53;83.09;101207.05;1728365;83;20901;-72
2021/08/23 01:37:21;;;;;;;9.88;6.22;;;;;;;15.52;83.16;101208.50;1728145;83;21140;-73
2021/08/23 01:39:48;;;;;;;7.25;5.78;;;;;;;15.50;83.35;101205.12;1728119;83;21470;-73
2021/08/23 01:42:15;;;;;;;9.10;6.53;;;;;;;15.50;83.35;101205.12;1728290;83;20933;-73
2021/08/23 01:44:42;;;;;;;8.30;5.97;;;;;;;15.50;83.64;101203.31;1728109;83;20965;-72
2021/08/23 01:47:09;;;;;;;7.40;5.65;;;;;;;15.50;83.77;101206.44;1728312;83;20933;-73
2021/08/23 01:49:37;;;;;;;6.58;5.17;;;;;;;15.48;83.65;101203.06;1728303;83;21546;-73
2021/08/23 01:52:13;;;;;;;9.10;5.97;;;;;;;15.46;83.85;101197.88;1728151;83;21016;-71
2021/08/23 01:54:42;;;;;;;8.35;5.47;;;;;;;15.46;83.96;101203.16;1728290;83;20936;-72
2021/08/23 01:57:15;;;;;;;7.62;6.10;;;;;;;15.46;84.11;101205.80;1728179;83;20909;-72
2021/08/23 01:59:41;;;;;;;8.88;6.45;;;;;;;15.46;84.08;101202.33;1728388;83;20890;-72
2021/08/23 02:02:08;;;;;;;7.78;6.95;;;;;;;15.42;83.89;101197.72;1728354;83;21537;-71
2021/08/23 02:04:36;;;;;;;8.10;5.75;;;;;;;15.42;83.89;101197.72;1728267;83;21047;-72
2021/08/23 02:07:03;;;;;;;7.62;6.37;;;;;;;15.41;84.15;101199.17;1728151;83;20976;-72
2021/08/23 02:09:32;;;;;;;8.48;5.83;;;;;;;15.40;84.28;101199.63;1728300;82;20897;-72
2021/08/23 02:11:59;;;;;;;10.80;6.20;;;;;;;15.38;84.19;101206.81;1728374;83;20925;-73
2021/08/23 02:14:26;;;;;;;7.47;5.67;;;;;;;15.38;84.25;101204.66;1728288;83;21130;-74
2021/08/23 02:16:54;;;;;;;6.20;5.20;;;;;;;15.36;84.05;101210.04;1728253;82;20921;-74
2021/08/23 02:19:22;;;;;;;11.18;5.12;;;;;;;15.35;84.24;101204.40;1728093;82;20881;-73
2021/08/23 02:21:53;;;;;;;12.90;6.67;;;;;;;15.37;83.94;101205.63;1728159;83;20933;-74
2021/08/23 02:24:20;;;;;;;8.18;5.75;;;;;;;15.37;84.29;101202.98;1728427;83;20998;-72
2021/08/23 02:26:47;;;;;;;11.43;5.58;;;;;;;15.37;84.22;101202.98;1728327;83;21488;-72
2021/08/23 02:29:15;;;;;;;7.80;5.70;;;;;;;15.38;84.29;101197.56;1728174;82;20921;-73
2021/08/23 02:31:42;;;;;;;6.78;6.05;;;;;;;15.38;84.23;101192.28;1728179;82;20976;-73
2021/08/23 02:34:09;;;;;;;9.30;6.03;;;;;;;15.39;84.05;101200.59;1728166;83;20977;-73
2021/08/23 02:36:36;;;;;;;8.83;6.00;;;;;;;15.38;83.79;101202.85;1728269;83;20941;-73
2021/08/23 02:39:03;;;;;;;11.43;5.92;;;;;;;15.37;83.86;101202.98;1728275;83;21137;-70
2021/08/23 02:41:30;;;;;;;11.83;5.78;;;;;;;15.34;83.72;101206.20;1728189;82;20897;-72
2021/08/23 02:43:57;;;;;;;8.03;5.35;;;;;;;15.32;83.86;101204.14;1728209;83;20957;-71
2021/08/23 02:46:24;;;;;;;9.28;5.70;;;;;;;15.30;83.95;101202.09;1728484;83;20961;-70
2021/08/23 02:48:51;;;;;;;6.85;5.33;;;;;;;15.30;84.22;101212.66;1728185;83;20905;-72
2021/08/23 02:51:20;;;;;;;8.25;5.12;;;;;;;15.30;84.24;101219.75;1728622;83;22928;-72
2021/08/23 02:53:46;;;;;;;8.65;5.62;;;;;;;15.30;84.24;101219.75;1728327;83;21438;-72
2021/08/23 02:56:13;;;;;;;6.12;5.50;;;;;;;15.31;84.50;101220.09;1728592;83;21016;-71
2021/08/23 02:58:40;;;;;;;6.50;5.70;;;;;;;15.26;84.10;101217.78;1728369;83;21071;-72
2021/08/23 03:01:07;;;;;;;7.72;5.90;;;;;;;15.26;84.10;101217.78;1728524;83;20960;-71
2021/08/23 03:03:35;;;;;;;7.05;6.00;;;;;;;15.24;84.47;101218.36;1728220;83;21122;-71
2021/08/23 03:06:02;;;;;;;8.13;6.58;;;;;;;15.24;84.47;101218.36;1728121;83;20929;-72
2021/08/23 03:08:30;;;;;;;7.30;5.87;;;;;;;15.24;84.57;101218.36;1728164;83;20996;-72
2021/08/23 03:11:10;;;;;;;7.85;6.40;;;;;;;15.23;84.62;101218.46;1728484;83;21440;-72
2021/08/23 03:13:36;;;;;;;9.48;6.05;;;;;;;15.19;84.50;101211.25;1727637;83;20988;-72
2021/08/23 03:16:04;;;;;;;13.10;6.00;;;;;;;15.21;84.48;101229.16;1728620;83;21592;-71
2021/08/23 03:18:31;;;;;;;9.85;6.15;;;;;;;15.21;84.46;101225.68;1728219;83;20877;-73
2021/08/23 03:20:59;;;;;;;7.17;5.50;;;;;;;15.21;84.38;101236.25;1728138;83;20997;-73
2021/08/23 03:23:27;;;;;;;6.65;5.28;;;;;;;15.20;84.38;101228.77;1728069;82;21429;-73
2021/08/23 03:25:53;;;;;;;9.13;5.60;;;;;;;15.20;84.32;101231.41;1728575;83;20940;-73
2021/08/23 03:28:20;;;;;;;11.03;5.62;;;;;;;15.21;84.17;101229.64;1728217;83;21534;-72
2021/08/23 03:30:47;;;;;;;11.18;6.42;;;;;;;15.23;83.93;101227.71;1728217;83;20984;-72
2021/08/23 03:33:14;;;;;;;9.33;5.97;;;;;;;15.23;83.93;101227.71;1731759;82;20976;-72
2021/08/23 03:35:41;;;;;;;10.35;5.97;;;;;;;15.27;83.94;101231.84;1733947;81;20945;-74
2021/08/23 03:38:08;;;;;;;9.70;5.80;;;;;;;15.30;83.94;101232.48;1733666;81;21489;-73
2021/08/23 03:40:34;;;;;;;9.43;6.37;;;;;;;15.34;83.92;101226.52;1733837;82;21117;-73
2021/08/23 03:43:01;;;;;;;10.10;6.55;;;;;;;15.39;84.00;101232.31;1733647;81;21417;-72
2021/08/23 03:45:28;;;;;;;9.00;5.65;;;;;;;15.51;83.82;101235.39;1733673;82;21066;-72
2021/08/23 03:47:55;;;;;;;12.00;5.60;;;;;;;15.51;83.82;101235.39;1733753;82;21401;-72
2021/08/23 03:50:22;;;;;;;9.88;5.50;;;;;;;15.58;83.98;101233.16;1733918;82;20937;-72
2021/08/23 03:52:49;;;;;;;9.33;6.30;;;;;;;15.65;83.98;101236.20;1733736;81;21514;-72
2021/08/23 03:55:18;;;;;;;11.45;6.03;;;;;;;15.68;83.92;101232.04;1733722;82;20973;-72
2021/08/23 03:57:45;;;;;;;6.08;5.50;;;;;;;15.75;83.87;101243.89;1733975;82;21464;-72
2021/08/23 04:00:12;;;;;;;7.22;5.85;;;;;;;15.82;83.90;101245.62;1733917;82;20913;-72
2021/08/23 04:02:38;;;;;;;6.55;5.75;;;;;;;15.88;83.91;101241.22;1733705;82;20981;-72
2021/08/23 04:05:06;;;;;;;10.80;5.72;;;;;;;15.93;84.11;101241.72;1733777;82;21477;-73
2021/08/23 04:07:33;;;;;;;8.48;5.25;;;;;;;16.00;84.25;101239.47;1733650;82;20862;-72
2021/08/23 04:10:00;;;;;;;9.10;6.20;;;;;;;16.04;84.33;101240.94;1733665;82;20885;-73
2021/08/23 04:12:28;;;;;;;9.90;5.85;;;;;;;16.09;84.52;101242.27;1734065;82;20964;-73
2021/08/23 04:14:55;;;;;;;6.25;4.28;;;;;;;16.14;84.41;101241.94;1703230;82;21031;-73
2021/08/23 04:17:21;;;;;;;10.48;6.15;;;;;;;16.20;84.33;101238.01;1733669;81;21196;-73
2021/08/23 04:22:39;;;;;;;5.58;4.95;;;;;;;16.42;84.03;101235.94;1883863;75;22148;-73
2021/08/23 04:25:08;;;;;;;9.78;5.40;;;;;;;16.44;83.78;101241.96;1860636;77;20828;-73
2021/08/23 04:27:35;;;;;;;5.85;4.90;;;;;;;16.51;83.63;101244.02;1860655;77;21125;-74
2021/08/23 04:30:02;;;;;;;7.00;4.20;;;;;;;16.58;83.24;101236.45;1860545;76;20891;-73
2021/08/23 04:32:31;;;;;;;7.40;4.62;;;;;;;16.65;83.05;101242.13;1860489;76;20844;-74
2021/08/23 04:34:57;;;;;;;5.05;3.90;;;;;;;16.72;82.81;101244.70;1860802;77;20883;-74
2021/08/23 04:37:25;;;;;;;5.42;4.28;;;;;;;16.84;82.28;101246.92;1860588;76;20907;-73
2021/08/23 04:39:56;;;;;;;4.42;3.98;;;;;;;16.94;81.32;101242.59;1860872;77;21170;-74
2021/08/23 04:42:23;;;;;;;9.13;3.62;;;;;;;17.06;80.73;101252.26;1860782;77;20868;-73
2021/08/23 04:44:50;;;;;;;4.85;3.55;;;;;;;17.21;80.10;101242.28;1860634;77;20848;-72
2021/08/23 04:47:19;;;;;;;5.00;3.92;;;;;;;17.35;79.55;101247.33;1860759;76;20887;-72
2021/08/23 04:49:47;;;;;;;3.30;3.00;;;;;;;17.54;78.92;101240.56;1860594;77;20836;-72
2021/08/23 04:52:14;;;;;;;3.90;3.50;;;;;;;17.77;78.33;101241.40;1860631;76;21121;-73
2021/08/23 04:54:41;;;;;;;3.62;3.33;;;;;;;18.07;77.14;101236.75;1860596;77;20871;-73
2021/08/23 04:57:08;;;;;;;4.72;2.60;;;;;;;18.36;75.91;101234.84;1860615;76;20820;-73
2021/08/23 04:59:36;;;;;;;5.97;3.10;;;;;;;18.65;74.79;101239.03;1860568;77;20919;-73
2021/08/23 05:02:03;;;;;;;15.85;3.95;;;;;;;18.95;73.68;101242.28;1860695;77;20943;-72
2021/08/23 05:04:30;;;;;;;3.72;3.33;;;;;;;19.36;72.72;101239.17;1860865;77;21487;-73
2021/08/23 05:06:57;;;;;;;5.05;3.05;;;;;;;19.93;71.50;101240.84;1860487;77;20835;-71
2021/08/23 05:09:23;;;;;;;4.62;2.77;;;;;;;20.53;69.27;101242.05;1860948;77;20923;-71
2021/08/23 05:11:51;;;;;;;6.80;2.45;;;;;;;21.17;67.69;101235.71;1860625;77;20935;-73
2021/08/23 05:14:19;;;;;;;2.83;2.52;;;;;;;21.79;65.95;101231.50;1860678;77;20997;-72
2021/08/23 05:16:45;;;;;;;10.38;3.30;;;;;;;22.44;63.58;101233.97;1860351;77;21506;-72
2021/08/23 05:19:13;;;;;;;6.33;2.65;;;;;;;23.03;61.33;101226.20;1860615;76;20828;-73
2021/08/23 05:21:40;;;;;;;3.00;2.40;;;;;;;23.56;59.76;101226.95;1855428;76;21398;-71
2021/08/23 05:24:07;;;;;;;6.37;2.70;;;;;;;24.04;57.97;101224.09;1849700;77;20885;-73
2021/08/23 05:26:38;;;;;;;4.00;2.33;;;;;;;24.46;55.63;101220.42;1850179;76;20858;-72
2021/08/23 05:29:05;;;;;;;6.22;2.45;;;;;;;24.87;54.33;101224.41;1849127;77;22202;-72
2021/08/23 05:31:32;;;;;;;3.25;2.15;;;;;;;25.22;51.80;101224.51;1850032;76;20881;-72
2021/08/23 05:34:00;;;;;;;2.40;2.15;;;;;;;25.53;51.18;101225.05;1849414;77;20948;-72
2021/08/23 05:36:27;;;;;;;3.02;2.33;;;;;;;25.93;50.71;101225.86;1849517;77;20920;-72
2021/08/23 05:38:54;;;;;;;8.73;2.40;;;;;;;26.37;50.18;101226.55;1849146;76;20929;-72
2021/08/23 05:41:21;;;;;;;6.17;2.77;;;;;;;26.72;49.00;101221.53;1849395;77;21096;-72
2021/08/23 05:43:48;;;;;;;4.25;2.60;;;;;;;27.04;48.08;101224.91;1849069;77;20873;-72
2021/08/23 05:46:20;;;;;;;5.75;2.33;;;;;;;27.33;46.92;101229.99;1849527;77;20882;-73
2021/08/23 05:48:47;;;;;;;4.67;2.98;;;;;;;27.53;45.79;101222.16;1849421;77;20869;-72
2021/08/23 05:51:15;;;;;;;3.00;2.40;;;;;;;27.59;44.71;101224.07;1849594;77;20929;-73
2021/08/23 05:53:43;;;;;;;4.50;2.30;;;;;;;27.62;44.58;101220.50;1849096;77;21480;-73
2021/08/23 05:56:12;;;;;;;4.90;2.33;;;;;;;27.78;44.88;101218.08;1849039;76;20917;-72
2021/08/23 05:58:40;;;;;;;3.65;2.05;;;;;;;28.08;44.71;101213.45;1849157;77;20909;-72
2021/08/23 06:01:07;;;;;;;2.90;1.95;;;;;;;28.40;44.52;101222.02;1849152;77;20932;-73
2021/08/23 06:03:34;;;;;;;3.58;2.12;;;;;;;28.75;44.20;101221.25;1849313;77;20968;-75
2021/08/23 06:06:06;;;;;;;4.62;2.20;;;;;;;29.01;43.78;101217.37;1849135;77;21903;-74
2021/08/23 06:08:33;;;;;;;3.80;2.42;;;;;;;29.21;43.41;101222.91;1848570;77;20885;-73
2021/08/23 06:11:03;;;;;;;4.40;2.33;;;;;;;29.46;42.53;101222.39;1849409;76;20862;-74
2021/08/23 06:13:30;;;;;;;4.30;2.83;;;;;;;29.67;41.81;101226.31;1849169;77;20869;-73
2021/08/23 06:15:57;;;;;;;5.05;2.33;;;;;;;29.89;41.00;101220.80;1849481;77;21315;-73
2021/08/23 06:18:25;;;;;;;5.12;2.42;;;;;;;30.13;40.27;101230.20;1849178;77;21111;-74
2021/08/23 06:20:53;;;;;;;3.60;2.08;;;;;;;30.36;39.86;101225.23;1848981;77;21413;-74
2021/08/23 06:23:20;;;;;;;4.12;2.00;;;;;;;30.58;39.30;101220.95;1807210;78;20891;-75
2021/08/23 06:25:48;;;;;;;6.72;2.20;;;;;;;30.80;39.35;101220.20;1834766;77;20907;-73
2021/08/23 06:28:15;;;;;;;3.35;2.02;;;;;;;31.00;38.44;101222.89;1834879;77;20965;-72
2021/08/23 06:30:42;;;;;;;4.72;2.35;;;;;;;31.12;38.27;101217.11;1835157;77;21094;-72
2021/08/23 06:33:09;;;;;;;9.75;3.02;;;;;;;31.35;37.53;101222.57;1834749;77;20867;-70
2021/08/23 06:35:36;;;;;;;5.80;2.60;;;;;;;31.54;37.25;101224.36;1834909;78;20852;-73
2021/08/23 06:38:02;;;;;;;9.45;2.50;;;;;;;31.69;36.13;101221.38;1834654;77;20910;-73
2021/08/23 06:40:29;;;;;;;6.28;2.33;;;;;;;31.67;34.96;101226.19;1834906;76;21523;-72
2021/08/23 06:42:56;;;;;;;9.48;2.33;;;;;;;31.61;34.87;101221.62;1834648;77;21504;-71
2021/08/23 06:45:24;;;;;;;9.05;2.92;;;;;;;31.48;34.33;101214.41;1834640;77;20930;-73
2021/08/23 06:47:51;;;;;;;6.33;2.25;;;;;;;31.40;34.32;101215.97;1834491;77;20950;-72
2021/08/23 06:50:19;;;;;;;3.42;1.77;;;;;;;31.38;34.84;101218.89;1834988;77;20871;-72
2021/08/23 06:52:46;;;;;;;3.90;1.90;;;;;;;31.39;34.08;101217.86;1834807;78;20887;-72
2021/08/23 06:55:13;;;;;;;4.95;2.25;;;;;;;31.47;35.38;101218.69;1834875;76;21083;-74
2021/08/23 06:57:40;;;;;;;4.03;2.42;;;;;;;31.73;35.47;101223.97;1834724;77;21328;-72
2021/08/23 07:00:08;;;;;;;2.55;1.72;;;;;;;32.01;35.15;101215.98;1834899;77;20914;-71
2021/08/23 07:02:35;;;;;;;5.12;2.10;;;;;;;32.25;34.41;101219.77;1834766;76;20883;-72
2021/08/23 07:05:03;;;;;;;3.83;1.70;;;;;;;32.46;33.32;101219.06;1834705;77;21428;-73
2021/08/23 07:07:32;;;;;;;2.58;2.35;;;;;;;32.59;33.09;101219.83;1834860;76;21465;-73
2021/08/23 07:09:59;;;;;;;4.22;2.00;;;;;;;32.48;32.50;101216.42;1834181;77;20938;-72
2021/08/23 07:12:28;;;;;;;4.20;1.98;;;;;;;32.38;33.00;101212.04;1834499;77;20997;-72
2021/08/23 07:14:55;;;;;;;4.25;1.90;;;;;;;32.38;32.36;101216.94;1834771;77;21444;-72
2021/08/23 07:17:22;;;;;;;2.40;1.60;;;;;;;32.28;33.34;101207.63;1834632;77;20919;-71
2021/08/23 07:19:49;;;;;;;2.95;1.62;;;;;;;32.30;32.74;101209.06;1834673;77;21519;-71
2021/08/23 07:22:18;;;;;;;4.90;1.95;;;;;;;32.30;32.02;101210.95;1841008;77;20854;-71
2021/08/23 07:24:47;;;;;;;3.50;2.12;;;;;;;32.23;31.81;101209.66;1849146;76;21342;-71
2021/08/23 07:27:13;;;;;;;1.85;1.50;;;;;;;32.39;32.20;101210.47;1848800;77;20846;-72
2021/08/23 07:29:41;;;;;;;8.25;2.05;;;;;;;32.44;31.72;101208.44;1849315;77;20865;-73
2021/08/23 07:32:08;;;;;;;2.95;2.27;;;;;;;32.53;31.98;101212.56;1849145;77;21789;-70
2021/08/23 07:34:37;;;;;;;1.70;1.57;;;;;;;32.70;31.35;101206.00;1849173;77;20921;-80
2021/08/23 07:37:04;;;;;;;3.00;1.45;;;;;;;32.69;30.76;101200.82;1848963;76;20964;-70
2021/08/23 07:39:31;;;;;;;2.58;1.85;;;;;;;32.77;31.09;101206.79;1849319;77;20965;-69
2021/08/23 07:41:58;;;;;;;7.28;1.80;;;;;;;32.98;30.23;101206.86;1849254;77;20865;-78
2021/08/23 07:44:26;;;;;;;3.98;1.90;;;;;;;33.11;30.76;101207.27;1849216;77;21137;-76
2021/08/23 07:46:54;;;;;;;2.87;1.40;;;;;;;33.39;29.57;101204.50;1823289;77;20877;-76
2021/08/23 07:49:21;;;;;;;2.47;1.20;;;;;;;33.46;29.02;101209.31;1849398;77;20909;-75
2021/08/23 07:51:48;;;;;;;3.55;1.30;;;;;;;33.56;29.28;101206.06;1848984;77;20877;-75
2021/08/23 07:54:17;;;;;;;3.22;1.07;;;;;;;33.65;27.86;101204.70;1849606;77;20862;-76
2021/08/23 07:56:44;;;;;;;2.95;1.10;;;;;;;33.59;27.08;101205.63;1849161;77;21526;-76
2021/08/23 07:59:11;;;;;;;4.85;1.82;;;;;;;33.54;26.30;101202.74;1849336;77;20991;-76
2021/08/23 08:01:38;;;;;;;1.85;1.32;;;;;;;33.46;26.66;101205.23;1849254;77;20877;-76
2021/08/23 08:04:05;;;;;;;1.32;0.80;;;;;;;33.50;26.17;101207.80;1849444;77;20964;-77
2021/08/23 08:06:32;;;;;;;1.95;0.80;;;;;;;33.41;25.15;101195.59;1849139;77;20941;-75
2021/08/23 08:08:59;;;;;;;3.00;0.85;;;;;;;33.30;25.26;101198.55;1849388;76;21086;-74
2021/08/23 08:11:26;;;;;;;2.55;0.90;;;;;;;33.15;25.16;101196.75;1849211;76;21405;-72
2021/08/23 08:13:53;;;;;;;5.37;0.80;;;;;;;33.15;25.80;101198.11;1849143;77;20870;-72
2021/08/23 08:16:20;;;;;;;1.17;0.90;;;;;;;33.23;24.93;101193.20;1849195;77;20912;-72
2021/08/23 08:18:47;;;;;;;2.17;0.70;;;;;;;33.37;25.64;101194.38;1849278;77;20901;-73
2021/08/23 08:21:14;;;;;;;3.02;0.85;;;;;;;33.35;24.83;101190.55;1849186;76;21428;-75
2021/08/23 08:23:41;;;;;;;4.62;1.20;;;;;;;33.34;25.15;101185.34;1835673;76;20954;-77
2021/08/23 08:26:08;;;;;;;2.92;1.05;;;;;;;33.30;24.95;101184.95;1834389;77;21433;-76
2021/08/23 08:28:35;;;;;;;4.03;1.20;;;;;;;33.29;25.59;101190.11;1834681;77;20835;-76
2021/08/23 08:31:02;;;;;;;4.92;1.65;;;;;;;33.40;25.64;101189.86;1834775;77;20986;-78
2021/08/23 08:33:29;;;;;;;1.92;1.32;;;;;;;33.47;26.03;101183.80;1834800;77;21091;-75
2021/08/23 08:35:59;;;;;;;2.75;1.17;;;;;;;33.74;26.21;101184.27;1834647;77;20839;-76
2021/08/23 08:38:26;;;;;;;2.85;1.20;;;;;;;33.94;24.75;101179.87;1835114;77;20871;-75
2021/08/23 08:40:56;;;;;;;2.87;1.12;;;;;;;34.07;25.46;101178.84;1834725;77;21508;-77
2021/08/23 08:43:23;;;;;;;1.77;1.27;;;;;;;34.24;24.55;101174.39;1808111;78;21426;-76
2021/08/23 08:45:50;;;;;;;5.62;1.75;;;;;;;34.29;24.69;101176.94;1834781;77;21443;-76
2021/08/23 08:48:19;;;;;;;1.57;1.00;;;;;;;34.38;23.55;101180.97;1834882;76;20851;-76
2021/08/23 08:50:47;;;;;;;3.08;1.15;;;;;;;34.29;23.26;101172.86;1834615;77;20856;-75
2021/08/23 08:53:15;;;;;;;2.02;0.78;;;;;;;34.28;23.53;101173.91;1834926;76;20911;-78
2021/08/23 08:55:42;;;;;;;2.33;1.00;;;;;;;34.37;23.94;101180.65;1834716;77;21041;-76
2021/08/23 08:58:09;;;;;;;1.65;0.62;;;;;;;34.49;23.86;101173.86;1834889;77;21095;-75
2021/08/23 09:00:40;;;;;;;1.72;0.78;;;;;;;34.69;23.89;101172.16;1834671;77;21712;-76
2021/08/23 09:03:09;;;;;;;2.58;1.35;;;;;;;34.91;24.06;101177.77;1834882;77;21416;-75
2021/08/23 09:05:42;;;;;;;1.77;0.90;;;;;;;34.97;22.62;101171.36;1834683;77;20922;-76
2021/08/23 09:08:09;;;;;;;1.45;1.22;;;;;;;34.90;22.95;101170.67;1834825;77;20898;-76
2021/08/23 09:10:40;;;;;;;3.05;0.90;;;;;;;34.77;22.47;101171.22;1834922;76;21099;-75
2021/08/23 09:13:09;;;;;;;8.35;3.90;;;;;;;34.62;22.96;101172.28;1834856;76;20969;-76
2021/08/23 09:15:39;;;;;;;6.35;2.87;;;;;;;34.57;23.30;101170.75;1835171;77;20859;-75
2021/08/23 09:18:08;;;;;;;1.27;0.90;;;;;;;34.69;23.78;101172.97;1835056;76;20906;-76
2021/08/23 09:20:36;;;;;;;1.85;1.10;;;;;;;34.85;22.96;101171.40;1834964;77;21316;-77
2021/08/23 09:23:12;;;;;;;5.20;2.00;;;;;;;35.00;23.21;101170.90;1842674;77;21500;-75
2021/08/23 09:25:45;;;;;;;2.50;1.37;;;;;;;35.11;23.27;101163.73;1849364;77;20854;-76
2021/08/23 09:28:12;;;;;;;6.60;2.80;;;;;;;35.21;23.32;101166.70;1849763;77;20968;-77
2021/08/23 09:30:38;;;;;;;1.17;1.07;;;;;;;35.33;23.26;101168.86;1849290;76;20842;-78
2021/08/23 09:33:06;;;;;;;6.30;1.32;;;;;;;35.27;21.68;101168.45;1849829;76;20870;-78
2021/08/23 09:35:35;;;;;;;2.15;0.93;;;;;;;35.04;22.40;101159.27;1849328;77;21521;-78
2021/08/23 09:38:09;;;;;;;1.32;1.02;;;;;;;34.87;22.25;101170.62;1849803;77;21063;-76
2021/08/23 09:40:36;;;;;;;2.80;0.93;;;;;;;34.67;22.35;101164.21;1848237;77;20838;-77
2021/08/23 09:43:13;;;;;;;1.00;0.85;;;;;;;34.43;22.51;101171.00;1849565;77;20922;-77
2021/08/23 09:45:49;;;;;;;2.37;1.10;;;;;;;34.36;23.05;101166.21;1849422;77;20991;-77
2021/08/23 09:48:17;;;;;;;0.93;0.90;;;;;;;34.37;23.43;101163.77;1849363;77;21523;-77
2021/08/23 09:50:50;;;;;;;2.27;1.50;;;;;;;34.53;23.16;101164.97;1849199;77;20964;-78
2021/08/23 09:53:22;;;;;;;1.98;1.02;;;;;;;34.56;22.69;101159.58;1849406;77;20908;-78
2021/08/23 09:55:50;;;;;;;3.62;1.10;;;;;;;34.60;22.98;101160.76;1849527;77;20928;-79
2021/08/23 09:58:18;;;;;;;1.45;0.60;;;;;;;34.64;22.73;101164.66;1849418;77;20823;-77
2021/08/23 10:00:45;;;;;;;2.92;1.32;;;;;;;34.70;22.98;101164.26;1849337;76;21098;-77
2021/08/23 10:03:18;;;;;;;5.72;0.98;;;;;;;34.66;21.94;101165.26;1849163;76;20944;-76
2021/08/23 10:05:54;;;;;;;2.55;1.10;;;;;;;34.60;22.41;101160.76;1849159;77;20921;-76
2021/08/23 10:08:17;;;;;;;1.50;1.40;;;;;;;34.73;22.50;101163.77;1847530;77;20965;-76
2021/08/23 10:10:44;;;;;;;4.10;1.07;;;;;;;34.73;21.85;101165.13;1849408;77;20956;-77
2021/08/23 10:13:11;;;;;;;1.30;0.93;;;;;;;34.70;22.86;101159.63;1849214;77;21044;-78
2021/08/23 10:15:38;;;;;;;1.60;1.20;;;;;;;34.86;22.60;101156.69;1849183;77;20870;-78
2021/08/23 10:18:06;;;;;;;4.10;1.25;;;;;;;34.84;21.51;101162.91;1849535;77;20948;-78
2021/08/23 10:20:33;;;;;;;6.00;2.58;;;;;;;34.71;21.72;101162.66;1849139;77;20910;-77
2021/08/23 10:23:00;;;;;;;1.65;1.10;;;;;;;34.65;22.46;101162.25;1849363;77;20916;-77
2021/08/23 10:25:27;;;;;;;1.98;0.70;;;;;;;34.74;22.23;101157.27;1849330;77;21471;-77
2021/08/23 10:28:13;;;;;;;1.17;0.88;;;;;;;34.80;22.08;101159.86;1849543;77;20866;-77
2021/08/23 10:30:40;;;;;;;1.80;1.22;;;;;;;34.81;22.17;101160.14;1849248;77;20865;-76
2021/08/23 10:33:13;;;;;;;1.35;0.90;;;;;;;34.91;21.88;101155.97;1849230;76;20838;-74
2021/08/23 10:35:53;;;;;;;6.25;1.35;;;;;;;35.00;21.86;101154.00;1851221;77;21315;-78
2021/08/23 10:38:22;;;;;;;1.35;1.17;;;;;;;35.07;21.93;101151.13;1849710;77;21749;-74
2021/08/23 10:41:07;;;;;;;3.40;1.57;;;;;;;35.16;21.73;101151.06;1849861;77;20916;-84
2021/08/23 10:43:56;;;;;;;2.17;1.40;;;;;;;35.18;21.55;101146.75;1849772;77;20984;-83
2021/08/23 10:46:28;;;;;;;1.57;1.47;;;;;;;35.02;21.03;101145.59;1849298;77;20928;-86
2021/08/23 10:48:58;;;;;;;2.85;1.30;;;;;;;34.85;20.87;101141.42;1850027;77;20990;-83
2021/08/23 10:51:37;;;;;;;2.58;1.37;;;;;;;34.80;22.04;101142.69;1849600;77;21111;-85
2021/08/23 10:54:27;;;;;;;2.77;1.57;;;;;;;34.89;21.23;101142.59;1849469;76;21366;-84
2021/08/23 10:57:07;;;;;;;4.75;1.37;;;;;;;34.79;21.17;101135.56;1849298;77;20878;-78
2021/08/23 10:59:51;;;;;;;1.98;1.47;;;;;;;34.66;21.89;101132.05;1849563;76;21417;-77
2021/08/23 11:02:33;;;;;;;3.87;2.65;;;;;;;34.48;22.55;101122.61;1848939;77;21074;-76
2021/08/23 11:05:10;;;;;;;4.62;1.80;;;;;;;34.45;22.49;101125.83;1847647;77;21482;-76
2021/08/23 11:07:39;;;;;;;3.47;1.70;;;;;;;34.33;22.82;101126.36;1849149;77;20904;-78
2021/08/23 11:10:15;;;;;;;2.67;1.72;;;;;;;34.36;22.38;101122.64;1849650;76;21383;-79
2021/08/23 11:12:54;;;;;;;1.90;1.70;;;;;;;34.41;21.69;101125.46;1849234;77;20992;-77
2021/08/23 11:15:28;;;;;;;2.20;2.00;;;;;;;34.44;22.04;101116.84;1849522;77;20999;-82
2021/08/23 11:18:01;;;;;;;2.12;1.30;;;;;;;34.45;22.35;101117.12;1849180;77;21064;-80
2021/08/23 11:20:33;;;;;;;1.70;1.40;;;;;;;34.52;22.28;101116.98;1849183;76;20846;-80
2021/08/23 11:23:03;;;;;;;1.82;1.55;;;;;;;34.54;21.79;101120.84;1851765;75;21365;-79
2021/08/23 11:25:43;;;;;;;3.75;1.90;;;;;;;34.57;22.17;101118.45;1859873;77;21610;-80
2021/08/23 11:28:16;;;;;;;4.22;2.33;;;;;;;34.61;21.79;101112.00;1859963;77;20911;-78
2021/08/23 11:30:50;;;;;;;2.95;2.25;;;;;;;34.58;21.36;101104.31;1859929;77;21805;-77
2021/08/23 11:33:41;;;;;;;5.50;2.17;;;;;;;34.44;21.89;101111.90;1859819;77;20820;-77